Time;durP1;ratioP1;P1;durP2;ratioP2;P2;SDS_P1;SDS_P2;PMS_P1;PMS_P2;Temp;Humidity;BMP_temperature;BMP_pressure;BME280_temperature;BME280_humidity;BME280_pressure;Samples;Min_cycle;Max_cycle;Signal;HPM_P1;HPM_P2
2024/02/01 00:01:38;;;;;;;47.03;29.13;;;6.90;99.90;;;;;;5038719;27;20097;-75
2024/02/01 00:04:04;;;;;;;40.60;28.23;;;6.90;99.90;;;;;;5024185;27;20045;-75
2024/02/01 00:06:30;;;;;;;37.90;27.42;;;7.00;99.90;;;;;;5033089;27;20056;-76
2024/02/01 00:08:56;;;;;;;37.72;26.75;;;7.00;99.90;;;;;;5029230;27;20043;-76
2024/02/01 00:11:22;;;;;;;41.47;27.85;;;7.00;99.90;;;;;;5026100;27;20048;-76
2024/02/01 00:13:50;;;;;;;42.65;27.75;;;7.10;99.90;;;;;;5048322;27;20045;-75
2024/02/01 00:16:21;;;;;;;35.40;26.50;;;7.10;99.90;;;;;;5045931;27;20832;-75
2024/02/01 00:18:47;;;;;;;40.33;26.60;;;7.10;99.90;;;;;;5038979;27;20053;-76
2024/02/01 00:21:13;;;;;;;37.55;26.08;;;7.20;99.90;;;;;;5021095;27;20543;-76
2024/02/01 00:23:39;;;;;;;41.22;28.92;;;7.20;99.90;;;;;;5032525;27;20571;-75
2024/02/01 00:26:05;;;;;;;38.25;25.75;;;7.20;99.90;;;;;;5039100;27;20063;-75
2024/02/01 00:28:31;;;;;;;32.83;23.42;;;7.30;99.90;;;;;;5040652;27;20033;-75
2024/02/01 00:30:57;;;;;;;41.53;25.55;;;7.30;99.90;;;;;;5036716;27;20564;-75
2024/02/01 00:33:22;;;;;;;31.35;23.38;;;7.30;99.90;;;;;;5045392;27;20469;-76
2024/02/01 00:35:48;;;;;;;36.13;23.75;;;7.40;99.90;;;;;;5039793;27;20037;-75
2024/02/01 00:38:14;;;;;;;40.00;25.08;;;7.40;99.90;;;;;;5037812;27;20053;-75
2024/02/01 00:40:40;;;;;;;43.15;25.13;;;7.40;99.90;;;;;;5041105;27;20041;-76
2024/02/01 00:43:07;;;;;;;41.97;25.67;;;7.50;99.90;;;;;;5035271;27;20052;-76
2024/02/01 00:45:33;;;;;;;37.10;22.98;;;7.50;99.90;;;;;;5022115;28;20606;-76
2024/02/01 00:47:58;;;;;;;34.40;22.75;;;7.60;99.90;;;;;;5019587;27;20039;-75
2024/02/01 00:50:24;;;;;;;34.42;22.20;;;7.60;99.90;;;;;;5034331;27;20473;-76
2024/02/01 00:52:50;;;;;;;33.60;20.13;;;7.60;99.90;;;;;;5026371;27;20437;-76
2024/02/01 00:55:15;;;;;;;33.88;20.02;;;7.60;99.90;;;;;;5031754;27;20067;-76
2024/02/01 00:57:41;;;;;;;34.05;21.48;;;7.70;99.90;;;;;;5032581;27;20062;-75
2024/02/01 01:00:07;;;;;;;23.63;18.05;;;7.70;99.90;;;;;;5037393;27;20507;-76
2024/02/01 01:02:33;;;;;;;23.65;17.05;;;7.70;99.90;;;;;;5054442;27;20497;-76
2024/02/01 01:05:01;;;;;;;26.60;18.15;;;7.80;99.90;;;;;;5034445;27;20127;-76
2024/02/01 01:07:27;;;;;;;24.63;15.40;;;7.80;99.90;;;;;;5031773;27;20510;-76
2024/02/01 01:09:53;;;;;;;26.38;16.95;;;7.90;99.90;;;;;;5027917;27;20045;-76
2024/02/01 01:12:19;;;;;;;25.00;17.90;;;7.90;99.90;;;;;;5046252;27;20039;-76
2024/02/01 01:14:45;;;;;;;25.98;18.13;;;8.10;99.90;;;;;;5034701;27;20499;-75
2024/02/01 01:17:11;;;;;;;26.08;16.67;;;8.00;99.90;;;;;;5033825;27;20059;-76
2024/02/01 01:19:36;;;;;;;26.73;16.85;;;8.10;99.90;;;;;;5038455;27;20041;-75
2024/02/01 01:22:02;;;;;;;32.95;16.23;;;8.20;99.90;;;;;;5023670;28;20424;-76
2024/02/01 01:24:28;;;;;;;33.78;16.77;;;8.20;99.90;;;;;;5034619;27;20061;-76
2024/02/01 01:26:54;;;;;;;32.38;15.95;;;8.20;99.90;;;;;;5026141;28;20091;-76
2024/02/01 01:29:20;;;;;;;27.60;15.00;;;8.30;99.90;;;;;;5037416;27;20056;-76
2024/02/01 01:31:46;;;;;;;36.60;14.27;;;8.30;99.90;;;;;;5023953;28;20041;-76
2024/02/01 01:34:12;;;;;;;38.88;15.18;;;8.30;99.90;;;;;;5035625;27;20049;-76
2024/02/01 01:36:38;;;;;;;32.75;13.82;;;8.30;99.90;;;;;;5021169;28;20110;-76
2024/02/01 01:39:04;;;;;;;33.03;13.05;;;8.30;99.90;;;;;;5037601;27;20029;-75
2024/02/01 01:41:33;;;;;;;38.63;13.00;;;8.30;99.90;;;;;;5018920;28;20090;-75
2024/02/01 01:43:58;;;;;;;38.15;12.32;;;8.30;99.90;;;;;;5038216;27;20049;-76
2024/02/01 01:46:25;;;;;;;37.45;12.65;;;8.30;99.90;;;;;;5017795;28;20116;-75
2024/02/01 01:48:51;;;;;;;42.22;12.82;;;8.30;99.90;;;;;;5025697;28;20259;-75
2024/02/01 01:51:17;;;;;;;34.67;10.63;;;8.30;99.90;;;;;;5048629;27;20076;-75
2024/02/01 01:53:44;;;;;;;32.90;10.15;;;8.20;99.90;;;;;;5038120;27;20084;-75
2024/02/01 01:56:12;;;;;;;27.65;9.23;;;8.20;99.90;;;;;;5021563;28;20090;-75
2024/02/01 01:58:39;;;;;;;26.45;9.70;;;8.20;99.90;;;;;;5041855;27;20529;-76
2024/02/01 02:01:06;;;;;;;28.83;8.80;;;8.20;99.90;;;;;;5020577;27;20044;-75
2024/02/01 02:03:37;;;;;;;25.15;8.38;;;8.10;99.90;;;;;;5036509;27;20037;-75
2024/02/01 02:06:02;;;;;;;;;;;8.10;99.90;;;;;;5019688;27;20144;-75
2024/02/01 02:08:28;;;;;;;30.55;8.63;;;8.00;99.90;;;;;;5035229;27;20015;-75
2024/02/01 02:10:54;;;;;;;36.53;9.50;;;8.00;99.90;;;;;;5026835;28;20048;-75
2024/02/01 02:13:20;;;;;;;30.70;7.20;;;7.90;99.90;;;;;;5040163;27;20055;-75
2024/02/01 02:15:46;;;;;;;39.75;8.73;;;7.90;99.90;;;;;;5053471;27;20589;-75
2024/02/01 02:18:12;;;;;;;28.27;7.30;;;7.90;99.90;;;;;;5036917;27;20127;-75
2024/02/01 02:20:44;;;;;;;32.47;7.22;;;7.80;99.90;;;;;;5028390;27;20124;-75
2024/02/01 02:23:11;;;;;;;33.83;7.10;;;7.80;99.90;;;;;;5041906;27;20055;-75
2024/02/01 02:25:38;;;;;;;29.10;6.47;;;7.80;99.90;;;;;;5026084;28;20041;-76
2024/02/01 02:28:04;;;;;;;30.40;7.47;;;7.70;99.90;;;;;;5041231;27;20503;-75
2024/02/01 02:30:33;;;;;;;23.63;5.70;;;7.70;99.90;;;;;;5048007;27;20047;-76
2024/02/01 02:32:59;;;;;;;30.47;6.10;;;7.60;99.90;;;;;;5043883;27;20048;-75
2024/02/01 02:35:25;;;;;;;31.08;6.43;;;7.50;99.90;;;;;;5028052;27;20702;-76
2024/02/01 02:37:54;;;;;;;35.47;6.75;;;7.50;99.90;;;;;;5037191;27;20072;-76
2024/02/01 02:40:21;;;;;;;28.10;5.93;;;7.40;99.90;;;;;;5040249;27;20037;-75
2024/02/01 02:42:47;;;;;;;23.75;5.78;;;7.40;99.90;;;;;;5043440;27;20056;-76
2024/02/01 02:45:13;;;;;;;22.63;5.40;;;7.30;99.90;;;;;;5041740;27;20511;-76
2024/02/01 02:47:39;;;;;;;29.58;6.30;;;7.20;99.90;;;;;;5045016;27;20040;-76
2024/02/01 02:50:06;;;;;;;29.98;5.78;;;7.10;99.90;;;;;;5038090;27;20048;-76
2024/02/01 02:52:33;;;;;;;31.95;6.00;;;7.10;99.90;;;;;;5048943;27;20041;-76
2024/02/01 02:54:59;;;;;;;28.58;6.30;;;7.00;99.90;;;;;;5046315;27;20522;-76
2024/02/01 02:57:24;;;;;;;29.40;5.75;;;7.00;99.90;;;;;;5054062;27;20049;-76
2024/02/01 02:59:50;;;;;;;29.38;5.97;;;6.90;99.90;;;;;;5032592;27;21867;-76
2024/02/01 03:02:16;;;;;;;31.73;6.22;;;6.90;99.90;;;;;;5121459;27;20041;-75
2024/02/01 03:04:42;;;;;;;29.85;5.38;;;6.90;99.90;;;;;;5040532;27;20045;-76
2024/02/01 03:07:08;;;;;;;22.63;4.72;;;6.80;99.90;;;;;;5038859;27;20041;-76
2024/02/01 03:09:37;;;;;;;28.70;6.20;;;6.70;99.90;;;;;;5024715;27;20049;-76
2024/02/01 03:12:09;;;;;;;33.58;6.20;;;6.70;99.90;;;;;;5053652;27;20108;-76
2024/02/01 03:14:39;;;;;;;36.50;5.93;;;6.60;99.90;;;;;;5023776;28;20188;-76
2024/02/01 03:17:06;;;;;;;29.40;5.95;;;6.60;99.90;;;;;;5024668;27;20225;-76
2024/02/01 03:19:39;;;;;;;29.92;5.68;;;6.50;99.90;;;;;;5043258;27;20037;-76
2024/02/01 03:22:05;;;;;;;28.77;5.43;;;6.40;99.90;;;;;;5034284;27;20052;-76
2024/02/01 03:24:34;;;;;;;29.63;6.95;;;6.40;99.90;;;;;;5048462;27;20106;-76
2024/02/01 03:27:00;;;;;;;32.53;5.95;;;6.30;99.90;;;;;;5022003;27;20076;-76
2024/02/01 03:29:28;;;;;;;35.80;6.38;;;6.30;99.90;;;;;;5042962;27;20439;-77
2024/02/01 03:32:05;;;;;;;30.13;5.85;;;6.20;99.90;;;;;;5062158;27;20057;-76
2024/02/01 03:34:31;;;;;;;30.08;5.72;;;6.10;99.90;;;;;;5039718;27;20036;-75
2024/02/01 03:36:58;;;;;;;28.30;5.78;;;6.10;99.90;;;;;;5023268;27;20033;-76
2024/02/01 03:39:24;;;;;;;28.60;5.20;;;6.00;99.90;;;;;;5038982;27;20717;-76
2024/02/01 03:41:54;;;;;;;38.15;6.55;;;6.00;99.90;;;;;;5026053;27;20053;-76
2024/02/01 03:44:21;;;;;;;28.75;4.97;;;6.00;99.90;;;;;;5023715;28;20055;-76
2024/02/01 03:46:47;;;;;;;34.15;5.20;;;5.90;99.90;;;;;;5023603;27;20036;-75
2024/02/01 03:49:14;;;;;;;35.90;6.63;;;5.80;99.90;;;;;;5041056;27;20295;-76
2024/02/01 03:51:40;;;;;;;33.58;6.13;;;5.80;99.90;;;;;;5038883;27;20037;-75
2024/02/01 03:54:06;;;;;;;31.75;5.57;;;5.80;99.90;;;;;;5024099;28;20041;-75
2024/02/01 03:56:35;;;;;;;40.30;6.55;;;5.70;99.90;;;;;;5034316;27;20064;-76
2024/02/01 03:59:02;;;;;;;31.17;6.60;;;5.70;99.90;;;;;;5018629;27;20052;-76
2024/02/01 04:01:28;;;;;;;40.08;7.47;;;5.70;99.90;;;;;;5045768;27;20156;-76
2024/02/01 04:03:55;;;;;;;31.75;5.80;;;5.60;99.90;;;;;;5040896;27;20072;-76
2024/02/01 04:06:25;;;;;;;38.38;6.80;;;5.50;99.90;;;;;;5034512;27;20109;-76
2024/02/01 04:08:51;;;;;;;39.90;6.20;;;5.50;99.90;;;;;;5039384;27;20041;-76
2024/02/01 04:11:17;;;;;;;35.58;7.03;;;5.50;99.90;;;;;;5030758;27;20045;-75
2024/02/01 04:13:43;;;;;;;41.05;7.00;;;5.40;99.90;;;;;;5045454;27;20598;-75
2024/02/01 04:16:09;;;;;;;32.72;6.50;;;5.30;99.90;;;;;;5025751;28;20044;-75
2024/02/01 04:18:35;;;;;;;35.33;6.13;;;5.30;99.90;;;;;;5036625;27;20069;-75
2024/02/01 04:21:01;;;;;;;42.30;5.88;;;5.30;99.90;;;;;;5044729;27;20075;-75
2024/02/01 04:23:29;;;;;;;31.95;5.93;;;5.20;99.90;;;;;;5044638;27;20053;-75
2024/02/01 04:25:56;;;;;;;35.42;7.28;;;5.20;99.90;;;;;;5025857;28;20056;-74
2024/02/01 04:28:21;;;;;;;37.72;7.18;;;5.20;99.90;;;;;;5037571;27;20479;-74
2024/02/01 04:30:50;;;;;;;29.40;5.97;;;5.10;99.90;;;;;;5041887;27;20069;-75
2024/02/01 04:33:22;;;;;;;40.83;7.25;;;5.10;99.90;;;;;;5040020;27;20052;-74
2024/02/01 04:35:48;;;;;;;35.20;6.78;;;5.00;99.90;;;;;;5021464;28;20043;-75
2024/02/01 04:38:14;;;;;;;36.78;6.97;;;5.00;99.90;;;;;;5030862;27;20045;-74
2024/02/01 04:40:43;;;;;;;43.85;7.15;;;4.90;99.90;;;;;;5044584;27;20063;-75
2024/02/01 04:43:10;;;;;;;32.03;6.65;;;4.90;99.90;;;;;;5022146;28;20049;-75
2024/02/01 04:45:36;;;;;;;33.90;6.65;;;4.90;99.90;;;;;;5038512;27;20132;-74
2024/02/01 04:48:03;;;;;;;34.60;5.88;;;4.90;99.90;;;;;;5038420;27;20043;-74
2024/02/01 04:50:29;;;;;;;37.08;7.22;;;4.90;99.90;;;;;;5039771;27;20415;-75
2024/02/01 04:52:55;;;;;;;39.83;8.10;;;4.90;99.90;;;;;;5026896;27;20071;-74
2024/02/01 04:55:22;;;;;;;41.88;7.32;;;4.80;99.90;;;;;;5042007;27;20080;-74
2024/02/01 04:57:50;;;;;;;40.10;6.65;;;4.80;99.90;;;;;;5035172;27;20521;-75
2024/02/01 05:00:21;;;;;;;38.90;7.25;;;4.70;99.90;;;;;;5045063;27;20052;-75
2024/02/01 05:02:47;;;;;;;36.05;6.30;;;4.70;99.90;;;;;;5030926;27;20048;-75
2024/02/01 05:05:15;;;;;;;36.60;7.50;;;4.70;99.90;;;;;;5025069;28;20749;-75
2024/02/01 05:07:41;;;;;;;34.45;5.72;;;4.70;99.90;;;;;;5139942;27;20403;-75
2024/02/01 05:10:12;;;;;;;45.13;7.45;;;4.50;99.90;;;;;;5102091;27;20545;-75
2024/02/01 05:12:41;;;;;;;42.78;7.28;;;4.50;99.90;;;;;;5024986;27;20144;-74
2024/02/01 05:15:09;;;;;;;44.92;6.75;;;4.50;99.90;;;;;;5019459;27;20061;-75
2024/02/01 05:17:37;;;;;;;37.92;7.20;;;4.50;99.90;;;;;;5030775;27;20049;-75
2024/02/01 05:20:08;;;;;;;37.42;7.40;;;4.50;99.90;;;;;;5017260;27;20510;-75
2024/02/01 05:22:38;;;;;;;40.65;7.72;;;4.50;99.90;;;;;;5034012;28;20046;-74
2024/02/01 05:25:14;;;;;;;37.42;6.63;;;4.50;99.90;;;;;;5025369;27;20416;-75
2024/02/01 05:27:52;;;;;;;41.10;6.68;;;4.50;99.90;;;;;;5023965;28;20372;-75
2024/02/01 05:30:20;;;;;;;43.40;7.93;;;4.40;99.90;;;;;;5036872;27;20171;-75
2024/02/01 05:32:52;;;;;;;39.45;6.75;;;4.40;99.90;;;;;;5047096;27;20045;-75
2024/02/01 05:35:28;;;;;;;46.55;7.97;;;4.30;99.90;;;;;;5034988;27;20118;-75
2024/02/01 05:37:56;;;;;;;42.85;6.55;;;4.30;99.90;;;;;;5038485;27;20550;-75
2024/02/01 05:40:22;;;;;;;45.78;7.22;;;4.30;99.90;;;;;;5034193;28;20053;-75
2024/02/01 05:42:48;;;;;;;40.40;6.55;;;4.30;99.90;;;;;;5015121;27;20071;-75
2024/02/01 05:45:16;;;;;;;37.90;6.93;;;4.20;99.90;;;;;;5037519;27;20064;-75
2024/02/01 05:47:42;;;;;;;38.78;7.28;;;4.20;99.90;;;;;;5021449;28;20511;-74
2024/02/01 05:50:10;;;;;;;39.90;6.68;;;4.20;99.90;;;;;;5041329;27;20053;-74
2024/02/01 05:52:39;;;;;;;36.80;6.18;;;4.20;99.90;;;;;;5049704;27;20056;-74
2024/02/01 05:55:06;;;;;;;39.40;7.28;;;4.10;99.90;;;;;;5037485;27;20187;-74
2024/02/01 05:57:33;;;;;;;30.58;6.50;;;4.10;99.90;;;;;;5026109;28;20057;-74
2024/02/01 06:00:00;;;;;;;41.60;7.00;;;4.00;99.90;;;;;;5042586;27;20130;-73
2024/02/01 06:02:27;;;;;;;33.47;6.30;;;4.00;99.90;;;;;;5024138;27;20045;-74
2024/02/01 06:04:53;;;;;;;39.13;6.80;;;4.00;99.90;;;;;;5026736;27;20041;-74
2024/02/01 06:07:19;;;;;;;42.15;7.28;;;4.00;99.90;;;;;;5022969;28;20057;-75
2024/02/01 06:09:45;;;;;;;32.33;6.32;;;3.90;99.90;;;;;;5028035;28;20036;-74
2024/02/01 06:12:10;;;;;;;34.83;6.72;;;3.90;99.90;;;;;;5025596;27;20136;-75
2024/02/01 06:14:36;;;;;;;47.22;6.65;;;4.00;99.90;;;;;;5025461;28;20116;-74
2024/02/01 06:17:02;;;;;;;40.75;6.95;;;3.80;99.90;;;;;;5042522;27;20045;-75
2024/02/01 06:19:28;;;;;;;43.97;7.53;;;3.80;99.90;;;;;;5031742;27;20040;-75
2024/02/01 06:21:54;;;;;;;36.97;6.63;;;3.80;99.90;;;;;;5034162;27;20031;-75
2024/02/01 06:24:20;;;;;;;37.22;7.28;;;3.80;99.90;;;;;;5050620;27;20086;-75
2024/02/01 06:26:46;;;;;;;39.13;6.97;;;3.80;99.90;;;;;;5022802;28;20136;-75
2024/02/01 06:29:11;;;;;;;38.38;7.28;;;3.80;99.90;;;;;;5029851;27;20049;-74
2024/02/01 06:31:38;;;;;;;39.65;7.95;;;3.80;99.90;;;;;;5037266;27;20041;-75
2024/02/01 06:34:05;;;;;;;41.75;7.82;;;3.80;99.90;;;;;;5050394;27;20114;-75
2024/02/01 06:36:38;;;;;;;34.58;6.10;;;3.80;99.90;;;;;;5045336;27;20034;-74
2024/02/01 06:41:47;;;;;;;39.28;7.72;;;3.90;99.90;;;;;;5045774;27;20584;-74
2024/02/01 06:44:26;;;;;;;32.60;6.97;;;3.90;99.90;;;;;;5023938;28;20060;-74
2024/02/01 06:52:24;;;;;;;38.38;7.93;;;3.90;99.90;;;;;;5036413;27;20144;-74
2024/02/01 07:00:40;;;;;;;40.40;7.88;;;3.80;99.90;;;;;;5036563;27;20057;-72
2024/02/01 07:13:57;;;;;;;48.58;8.23;;;3.80;99.90;;;;;;5039063;27;20043;-73
2024/02/01 07:16:35;;;;;;;40.63;7.25;;;3.80;99.90;;;;;;5031673;27;20133;-72
2024/02/01 07:19:12;;;;;;;42.55;7.57;;;3.70;99.90;;;;;;5038553;27;20049;-72
2024/02/01 07:22:05;;;;;;;37.90;7.25;;;3.70;99.90;;;;;;5024441;27;20467;-76
2024/02/01 07:24:46;;;;;;;36.50;6.88;;;3.70;99.90;;;;;;5040569;27;20045;-76
2024/02/01 07:57:51;;;;;;;32.70;5.93;;;3.60;99.90;;;;;;5048864;27;20049;-72
2024/02/01 08:00:19;;;;;;;40.03;6.85;;;3.60;99.90;;;;;;5045481;27;20435;-73
2024/02/01 08:03:00;;;;;;;39.47;7.30;;;3.70;99.90;;;;;;5036753;27;20162;-76
2024/02/01 08:08:12;;;;;;;35.20;6.80;;;3.80;99.90;;;;;;5042271;27;20117;-72
2024/02/01 08:10:37;;;;;;;45.28;8.82;;;3.70;99.90;;;;;;5024658;28;20124;-72
2024/02/01 08:13:07;;;;;;;41.55;7.07;;;3.80;99.90;;;;;;5025357;27;20128;-72
2024/02/01 08:15:37;;;;;;;39.83;6.97;;;3.90;99.90;;;;;;5025244;27;20045;-72
2024/02/01 08:18:08;;;;;;;;;;;3.90;99.90;;;;;;5028695;28;20049;-72
2024/02/01 08:20:34;;;;;;;39.15;7.45;;;3.90;99.90;;;;;;5047942;27;19924;-73
2024/02/01 08:23:04;;;;;;;38.22;7.88;;;3.90;99.90;;;;;;5024590;28;20037;-73
2024/02/01 08:25:30;;;;;;;35.78;7.47;;;4.00;99.90;;;;;;5037144;27;20106;-73
2024/02/01 08:28:06;;;;;;;40.95;7.72;;;4.00;99.90;;;;;;5025991;28;20515;-72
2024/02/01 08:30:32;;;;;;;44.20;7.90;;;4.10;99.90;;;;;;5042778;27;20665;-73
2024/02/01 08:33:04;;;;;;;38.35;7.40;;;4.20;99.90;;;;;;5023097;28;20150;-72
2024/02/01 08:35:33;;;;;;;35.83;6.60;;;4.20;99.90;;;;;;5048693;27;20404;-73
2024/02/01 08:38:09;;;;;;;37.15;6.65;;;4.30;99.90;;;;;;5038240;27;20111;-73
2024/02/01 08:40:40;;;;;;;38.05;7.20;;;4.30;99.90;;;;;;5026574;27;20391;-73
2024/02/01 08:43:11;;;;;;;35.38;7.55;;;4.40;99.90;;;;;;5030062;28;20087;-72
2024/02/01 08:45:38;;;;;;;40.83;7.80;;;4.40;99.90;;;;;;5040915;27;20064;-74
2024/02/01 08:48:05;;;;;;;38.95;7.40;;;4.50;99.90;;;;;;5024016;28;20391;-72
2024/02/01 08:50:33;;;;;;;35.42;7.03;;;4.50;99.90;;;;;;5027115;27;20045;-71
2024/02/01 08:53:00;;;;;;;37.28;7.75;;;4.60;99.90;;;;;;5037254;27;20037;-73
2024/02/01 08:55:27;;;;;;;37.17;7.78;;;4.60;99.90;;;;;;5039399;27;20418;-73
2024/02/01 08:57:54;;;;;;;39.75;7.40;;;4.70;99.90;;;;;;5022562;28;20040;-73
2024/02/01 09:00:26;;;;;;;45.53;7.88;;;4.70;99.90;;;;;;5038519;27;20047;-73
2024/02/01 09:03:03;;;;;;;37.90;7.55;;;4.70;99.90;;;;;;5050996;27;20050;-73
2024/02/01 09:05:40;;;;;;;42.33;8.23;;;4.80;99.90;;;;;;5039281;27;20082;-72
2024/02/01 09:08:15;;;;;;;29.38;6.60;;;4.80;99.90;;;;;;5021772;28;20499;-73
2024/02/01 09:11:19;;;;;;;38.05;7.13;;;4.90;99.90;;;;;;5034407;27;20120;-73
2024/02/01 09:13:47;;;;;;;39.45;8.52;;;4.90;99.90;;;;;;5040032;27;20136;-73
2024/02/01 09:16:19;;;;;;;42.45;8.00;;;5.00;99.90;;;;;;5038176;27;20570;-73
2024/02/01 09:18:44;;;;;;;41.85;8.45;;;5.00;99.90;;;;;;5049352;27;20065;-73
2024/02/01 09:21:10;;;;;;;34.17;7.28;;;5.10;99.90;;;;;;5031990;27;20049;-72
2024/02/01 09:23:37;;;;;;;34.28;7.68;;;5.10;99.90;;;;;;5020764;27;20041;-73
2024/02/01 09:26:04;;;;;;;36.60;8.10;;;5.10;99.90;;;;;;5041927;27;20570;-73
2024/02/01 09:28:29;;;;;;;32.15;7.25;;;5.20;99.90;;;;;;5040553;27;20053;-73
2024/02/01 09:30:55;;;;;;;33.92;7.07;;;5.30;99.90;;;;;;5041117;27;20037;-73
2024/02/01 09:33:27;;;;;;;34.47;7.50;;;5.30;99.90;;;;;;5037888;27;20132;-72
2024/02/01 09:35:54;;;;;;;27.67;6.50;;;5.40;99.90;;;;;;5045150;27;20124;-73
2024/02/01 09:38:19;;;;;;;36.03;7.65;;;5.40;99.90;;;;;;5024597;28;20086;-73
2024/02/01 09:40:48;;;;;;;31.90;7.13;;;5.50;99.90;;;;;;5039241;27;20037;-72
2024/02/01 09:43:17;;;;;;;35.10;7.93;;;5.60;99.90;;;;;;5046519;27;20053;-73
2024/02/01 09:45:44;;;;;;;39.53;8.35;;;5.60;99.90;;;;;;5043463;27;20114;-73
2024/02/01 09:48:16;;;;;;;33.80;7.97;;;5.60;99.90;;;;;;5021404;28;20041;-73
2024/02/01 09:50:49;;;;;;;31.33;6.70;;;5.70;99.90;;;;;;5021724;27;21481;-72
2024/02/01 09:53:15;;;;;;;40.50;7.80;;;5.80;99.90;;;;;;5028358;28;20475;-73
2024/02/01 09:55:42;;;;;;;29.48;7.85;;;5.80;99.90;;;;;;5030706;28;20651;-77
2024/02/01 09:58:08;;;;;;;40.78;8.23;;;5.90;99.90;;;;;;5029642;28;20487;-77
2024/02/01 10:00:38;;;;;;;36.92;7.15;;;5.90;99.90;;;;;;5026016;27;20214;-77
2024/02/01 10:03:05;;;;;;;35.58;7.68;;;6.00;99.90;;;;;;5030345;28;20449;-77
2024/02/01 10:05:32;;;;;;;35.13;7.47;;;6.00;99.90;;;;;;5022035;27;20285;-76
2024/02/01 10:07:59;;;;;;;40.28;8.30;;;6.10;99.90;;;;;;5041934;27;20044;-77
2024/02/01 10:10:25;;;;;;;50.30;8.65;;;6.10;99.90;;;;;;5036403;27;20051;-77
2024/02/01 10:12:58;;;;;;;33.33;6.80;;;6.20;99.90;;;;;;5023251;28;20049;-77
2024/02/01 10:15:30;;;;;;;33.30;7.22;;;6.30;99.90;;;;;;5024658;28;20101;-77
2024/02/01 10:17:58;;;;;;;35.58;7.45;;;6.30;99.90;;;;;;5031215;28;20047;-77
2024/02/01 10:20:34;;;;;;;40.05;8.75;;;6.40;99.90;;;;;;5025610;28;20057;-76
2024/02/01 10:23:04;;;;;;;30.73;7.72;;;6.40;99.90;;;;;;5026133;28;20064;-73
2024/02/01 10:25:34;;;;;;;;;;;6.50;99.90;;;;;;5041795;27;20069;-73
2024/02/01 10:28:04;;;;;;;32.67;7.75;;;6.60;99.90;;;;;;5020175;28;19971;-73
2024/02/01 10:30:31;;;;;;;39.50;7.47;;;6.60;99.90;;;;;;5034681;27;20086;-73
2024/02/01 10:33:01;;;;;;;42.50;7.68;;;6.70;99.90;;;;;;5029747;27;20072;-73
2024/02/01 10:35:30;;;;;;;35.75;7.00;;;6.80;99.90;;;;;;5042731;27;20045;-73
2024/02/01 10:37:56;;;;;;;34.85;7.43;;;6.90;99.90;;;;;;5028704;28;20095;-73
2024/02/01 10:40:27;;;;;;;33.03;7.00;;;6.90;99.90;;;;;;5044233;27;20238;-73
2024/02/01 10:42:59;;;;;;;31.15;6.88;;;7.00;99.90;;;;;;5042966;27;20080;-73
2024/02/01 10:45:33;;;;;;;31.02;7.32;;;7.00;99.90;;;;;;5041509;27;20605;-73
2024/02/01 10:48:08;;;;;;;31.08;6.93;;;7.10;99.90;;;;;;5027005;28;20055;-73
2024/02/01 10:50:37;;;;;;;34.13;7.15;;;7.20;99.90;;;;;;5024822;28;20056;-73
2024/02/01 10:53:11;;;;;;;30.92;6.57;;;7.20;99.90;;;;;;5040571;27;20060;-73
2024/02/01 10:55:40;;;;;;;31.05;6.97;;;7.20;99.90;;;;;;5051127;27;20505;-73
2024/02/01 10:58:13;;;;;;;34.20;7.45;;;7.20;99.90;;;;;;5029156;27;20041;-73
2024/02/01 11:00:44;;;;;;;33.60;7.07;;;7.20;99.90;;;;;;5044159;27;20105;-73
2024/02/01 11:03:11;;;;;;;35.65;6.78;;;7.20;99.90;;;;;;5042337;27;20042;-73
2024/02/01 11:05:38;;;;;;;32.47;7.53;;;7.20;99.90;;;;;;5025755;27;20476;-72
2024/02/01 11:08:13;;;;;;;31.83;6.65;;;7.30;99.90;;;;;;5042100;27;20125;-73
2024/02/01 11:10:39;;;;;;;30.77;7.65;;;7.30;99.90;;;;;;5047342;27;20029;-73
2024/02/01 11:13:05;;;;;;;30.63;6.93;;;7.40;99.90;;;;;;5038398;27;20440;-73
2024/02/01 11:15:31;;;;;;;29.90;6.07;;;7.40;99.90;;;;;;5024313;27;20571;-73
2024/02/01 11:18:07;;;;;;;31.58;7.00;;;7.50;99.90;;;;;;5041872;27;20067;-73
2024/02/01 11:20:34;;;;;;;27.52;6.57;;;7.60;99.90;;;;;;5025823;27;20508;-73
2024/02/01 11:23:05;;;;;;;33.40;7.40;;;7.60;99.90;;;;;;5019239;28;20072;-72
2024/02/01 11:25:33;;;;;;;31.50;6.47;;;7.60;99.90;;;;;;5034818;27;20052;-73
2024/02/01 11:28:11;;;;;;;28.95;6.55;;;7.70;99.90;;;;;;5047096;27;20598;-73
2024/02/01 11:30:37;;;;;;;27.00;6.97;;;7.60;99.90;;;;;;5025800;28;20030;-73
2024/02/01 11:33:18;;;;;;;29.25;6.72;;;7.60;99.90;;;;;;5041866;27;20045;-73
2024/02/01 11:35:43;;;;;;;;;;;7.70;99.90;;;;;;5037964;27;20049;-73
2024/02/01 11:38:09;;;;;;;29.17;7.30;;;7.70;99.90;;;;;;5053254;27;20285;-73
2024/02/01 11:40:42;;;;;;;31.00;6.85;;;7.70;99.90;;;;;;5030463;27;20041;-73
2024/02/01 11:43:09;;;;;;;29.50;7.30;;;7.70;99.90;;;;;;5034973;27;20599;-73
2024/02/01 11:45:34;;;;;;;30.25;6.75;;;7.70;99.90;;;;;;5026539;27;20044;-73
2024/02/01 11:48:01;;;;;;;31.58;7.85;;;7.80;99.90;;;;;;5026523;28;20033;-73
2024/02/01 11:50:27;;;;;;;25.05;6.63;;;7.80;99.90;;;;;;5025303;27;20049;-78
2024/02/01 11:53:05;;;;;;;33.92;8.45;;;7.80;99.90;;;;;;5035169;27;20064;-79
2024/02/01 11:55:33;;;;;;;32.53;7.15;;;7.90;99.90;;;;;;5041321;27;20056;-79
2024/02/01 11:58:00;;;;;;;33.03;8.32;;;7.90;99.90;;;;;;5036298;27;20861;-79
2024/02/01 12:00:27;;;;;;;26.08;6.05;;;7.90;99.90;;;;;;5053828;27;20076;-79
2024/02/01 12:02:53;;;;;;;23.60;5.82;;;8.00;99.90;;;;;;5039687;27;20045;-79
2024/02/01 12:05:20;;;;;;;31.95;7.00;;;8.00;99.90;;;;;;5036713;27;20045;-79
2024/02/01 12:07:50;;;;;;;23.77;5.65;;;8.00;99.90;;;;;;5041607;27;20514;-79
2024/02/01 12:10:17;;;;;;;20.90;5.90;;;8.00;99.90;;;;;;5042592;27;20050;-79
2024/02/01 12:12:46;;;;;;;26.05;5.65;;;7.90;99.90;;;;;;5028761;27;20062;-79
2024/02/01 12:15:15;;;;;;;22.20;4.93;;;7.90;99.90;;;;;;5043826;27;20085;-79
2024/02/01 12:17:43;;;;;;;29.60;6.32;;;7.90;99.90;;;;;;5027651;28;20045;-79
2024/02/01 12:20:15;;;;;;;29.27;6.50;;;7.80;99.90;;;;;;5025830;28;20039;-73
2024/02/01 12:22:44;;;;;;;26.75;6.05;;;7.80;99.90;;;;;;5021125;28;20033;-73
2024/02/01 12:25:15;;;;;;;27.60;6.10;;;7.90;99.90;;;;;;5045083;27;20034;-73
2024/02/01 12:27:45;;;;;;;28.65;6.15;;;7.90;99.90;;;;;;5037919;27;20514;-73
2024/02/01 12:30:14;;;;;;;18.88;5.65;;;7.90;99.90;;;;;;5043569;27;20043;-73
2024/02/01 12:32:46;;;;;;;19.33;4.82;;;7.90;99.90;;;;;;5022537;27;20486;-73
2024/02/01 12:35:18;;;;;;;28.10;5.53;;;7.90;99.90;;;;;;5039748;27;20037;-73
2024/02/01 12:37:45;;;;;;;31.83;7.00;;;8.10;99.90;;;;;;5037893;27;20468;-73
2024/02/01 12:40:16;;;;;;;25.02;5.75;;;8.10;99.90;;;;;;5035629;27;20103;-73
2024/02/01 12:42:43;;;;;;;32.75;6.00;;;8.10;99.90;;;;;;5040936;27;20121;-73
2024/02/01 12:45:19;;;;;;;27.92;6.20;;;8.20;99.90;;;;;;5042370;27;20045;-73
2024/02/01 12:47:48;;;;;;;21.55;5.47;;;8.20;99.90;;;;;;5040906;27;20052;-73
2024/02/01 12:50:17;;;;;;;29.33;6.22;;;8.40;99.90;;;;;;5028659;27;20057;-73
2024/02/01 12:52:44;;;;;;;22.27;5.85;;;8.40;99.90;;;;;;5039740;27;20040;-73
2024/02/01 12:55:10;;;;;;;30.48;6.70;;;8.40;99.90;;;;;;5051301;27;20091;-73
2024/02/01 12:57:37;;;;;;;31.85;6.72;;;8.40;99.90;;;;;;5044838;27;20530;-73
2024/02/01 13:00:10;;;;;;;25.77;5.60;;;8.40;99.90;;;;;;5029508;27;20411;-73
2024/02/01 13:02:39;;;;;;;31.98;6.97;;;8.40;99.90;;;;;;5023198;28;20036;-73
2024/02/01 13:05:12;;;;;;;25.33;5.80;;;8.40;99.90;;;;;;5040854;27;20048;-73
2024/02/01 13:07:38;;;;;;;26.25;5.25;;;8.40;99.90;;;;;;5035911;27;20054;-73
2024/02/01 13:10:13;;;;;;;26.50;5.35;;;8.40;99.90;;;;;;5055067;27;20027;-73
2024/02/01 13:12:54;;;;;;;28.83;6.07;;;8.40;99.90;;;;;;5040023;27;20041;-73
2024/02/01 13:15:25;;;;;;;27.38;6.57;;;8.40;99.90;;;;;;5037433;27;20153;-81
2024/02/01 13:17:52;;;;;;;25.48;5.30;;;8.50;99.90;;;;;;5047276;27;20048;-73
2024/02/01 13:20:21;;;;;;;25.85;6.22;;;8.50;99.90;;;;;;5025507;27;20060;-74
2024/02/01 13:22:48;;;;;;;25.65;5.50;;;8.50;99.90;;;;;;5050622;27;20665;-73
2024/02/01 13:25:19;;;;;;;26.38;5.75;;;8.50;99.90;;;;;;5035872;27;20041;-73
2024/02/01 13:27:49;;;;;;;24.02;4.95;;;8.50;99.90;;;;;;5035661;27;20486;-73
2024/02/01 13:30:19;;;;;;;27.80;6.40;;;8.60;99.90;;;;;;5037369;27;20045;-73
2024/02/01 13:32:46;;;;;;;;;;;8.60;99.90;;;;;;5028369;27;20041;-73
2024/02/01 13:35:12;;;;;;;19.27;5.05;;;8.60;99.90;;;;;;5040662;27;20357;-73
2024/02/01 13:37:38;;;;;;;20.98;5.88;;;8.60;99.90;;;;;;5049080;27;20037;-73
2024/02/01 13:40:05;;;;;;;26.98;5.47;;;8.60;99.90;;;;;;5021370;28;20048;-81
2024/02/01 13:42:35;;;;;;;21.08;5.10;;;8.70;99.90;;;;;;5053607;27;20106;-80
2024/02/01 13:45:05;;;;;;;28.35;5.95;;;8.70;99.90;;;;;;5040658;27;20037;-81
2024/02/01 13:47:31;;;;;;;;;;;8.70;99.90;;;;;;5053155;27;20646;-73
2024/02/01 13:49:57;;;;;;;27.58;5.80;;;8.70;99.90;;;;;;5037941;27;19925;-74
2024/02/01 13:52:22;;;;;;;29.20;6.45;;;8.70;99.90;;;;;;5042415;27;20053;-73